createdAt,value
2019-04-28T00:00:02.289Z,12.88
2019-04-28T00:00:07.291Z,11.48
2019-04-28T00:00:12.294Z,12.26
2019-04-28T00:00:17.293Z,14.70
2019-04-28T00:00:22.295Z,16.57
2019-04-28T00:00:27.294Z,13.35
2019-04-28T00:00:32.295Z,12.67
2019-04-28T00:00:37.300Z,11.41
2019-04-28T00:00:42.297Z,12.41
2019-04-28T00:00:47.299Z,12.05
2019-04-28T00:00:52.299Z,14.81
2019-04-28T00:00:57.299Z,12.78
2019-04-28T00:01:02.300Z,11.08
2019-04-28T00:01:07.311Z,11.61
2019-04-28T00:01:12.303Z,11.07
2019-04-28T00:01:17.306Z,14.40
2019-04-28T00:01:22.306Z,18.23
2019-04-28T00:01:27.307Z,14.36
2019-04-28T00:01:32.309Z,15.50
2019-04-28T00:01:37.308Z,13.06
2019-04-28T00:01:42.310Z,14.79
2019-04-28T00:01:47.309Z,12.40
2019-04-28T00:01:52.312Z,10.14
2019-04-28T00:01:57.311Z,12.43
2019-04-28T00:02:02.314Z,14.12
2019-04-28T00:02:07.314Z,11.61
2019-04-28T00:02:12.314Z,9.77
2019-04-28T00:02:17.316Z,8.04
2019-04-28T00:02:22.317Z,8.77
2019-04-28T00:02:27.317Z,10.14
2019-04-28T00:02:32.667Z,8.46
2019-04-28T00:02:37.320Z,12.99
2019-04-28T00:02:42.322Z,12.64
2019-04-28T00:02:47.322Z,12.81
2019-04-28T00:02:52.323Z,9.70
2019-04-28T00:02:57.324Z,8.02
2019-04-28T00:03:02.324Z,5.05
2019-04-28T00:03:07.325Z,8.25
2019-04-28T00:03:12.325Z,8.21
2019-04-28T00:03:17.329Z,10.38
2019-04-28T00:03:22.329Z,16.50
2019-04-28T00:03:27.329Z,16.79
2019-04-28T00:03:32.330Z,15.85
2019-04-28T00:03:37.331Z,13.93
2019-04-28T00:03:42.332Z,10.53
2019-04-28T00:03:47.335Z,10.31
2019-04-28T00:03:52.336Z,10.64
2019-04-28T00:03:57.336Z,10.75
2019-04-28T00:04:02.335Z,10.78
2019-04-28T00:04:07.339Z,10.79
2019-04-28T00:04:12.342Z,10.80
2019-04-28T00:04:17.339Z,10.50
2019-04-28T00:04:22.339Z,8.95
2019-04-28T00:04:27.341Z,5.35
2019-04-28T00:04:32.341Z,4.89
2019-04-28T00:04:37.344Z,11.27
2019-04-28T00:04:42.345Z,13.37
2019-04-28T00:04:47.345Z,11.64
2019-04-28T00:04:52.348Z,9.78
2019-04-28T00:04:57.349Z,11.10
2019-04-28T00:05:02.349Z,13.32
2019-04-28T00:05:07.348Z,14.62
2019-04-28T00:05:12.350Z,14.10
2019-04-28T00:05:17.350Z,12.55
2019-04-28T00:05:22.469Z,12.26
2019-04-28T00:05:27.353Z,17.82
2019-04-28T00:05:32.354Z,16.61
2019-04-28T00:05:37.353Z,12.94
2019-04-28T00:05:42.354Z,15.38
2019-04-28T00:05:47.356Z,16.48
2019-04-28T00:05:52.356Z,15.74
2019-04-28T00:05:57.358Z,14.67
2019-04-28T00:06:02.361Z,15.61
2019-04-28T00:06:07.360Z,14.80
2019-04-28T00:06:12.362Z,12.40
2019-04-28T00:06:17.363Z,8.91
2019-04-28T00:06:22.362Z,9.52
2019-04-28T00:06:27.363Z,9.80
2019-04-28T00:06:32.365Z,9.35
2019-04-28T00:06:37.365Z,10.32
2019-04-28T00:06:42.367Z,9.35
2019-04-28T00:06:47.373Z,7.90
2019-04-28T00:06:53.819Z,11.89
2019-04-28T00:06:58.817Z,13.58
2019-04-28T00:07:03.819Z,14.13
2019-04-28T00:07:09.043Z,13.65
2019-04-28T00:07:13.819Z,13.43
2019-04-28T00:07:18.822Z,15.38
2019-04-28T00:07:23.830Z,12.60
2019-04-28T00:07:28.823Z,12.68
2019-04-28T00:07:33.824Z,13.84
2019-04-28T00:07:38.825Z,13.55
2019-04-28T00:07:43.826Z,15.51
2019-04-28T00:07:48.827Z,13.01
2019-04-28T00:07:53.829Z,11.15
2019-04-28T00:07:58.829Z,11.28
2019-04-28T00:08:04.079Z,10.96
2019-04-28T00:08:08.831Z,9.10
2019-04-28T00:08:13.832Z,5.70
2019-04-28T00:08:18.839Z,6.41
2019-04-28T00:08:23.842Z,6.94
2019-04-28T00:08:28.842Z,10.00
2019-04-28T00:08:33.836Z,13.01
2019-04-28T00:08:38.839Z,14.90
2019-04-28T00:08:43.837Z,14.57
2019-04-28T00:08:48.843Z,13.16
2019-04-28T00:08:53.839Z,11.00
2019-04-28T00:08:58.842Z,11.23
2019-04-28T00:09:03.842Z,10.94
2019-04-28T00:09:08.845Z,10.85
2019-04-28T00:09:13.844Z,10.10
2019-04-28T00:09:18.846Z,8.81
2019-04-28T00:09:23.848Z,7.15
2019-04-28T00:09:28.846Z,8.59
2019-04-28T00:09:34.065Z,6.36
2019-04-28T00:09:38.850Z,6.63
2019-04-28T00:09:43.851Z,4.89
2019-04-28T00:09:48.854Z,6.15
2019-04-28T00:09:54.413Z,9.28
2019-04-28T00:09:58.852Z,14.85
2019-04-28T00:10:03.854Z,15.21
2019-04-28T00:10:08.854Z,14.67
2019-04-28T00:10:13.855Z,16.19
2019-04-28T00:10:18.859Z,16.00
2019-04-28T00:10:23.859Z,16.16
2019-04-28T00:10:28.859Z,15.64
2019-04-28T00:10:33.861Z,13.81
2019-04-28T00:10:38.861Z,13.45
2019-04-28T00:10:43.862Z,15.21
2019-04-28T00:10:48.864Z,12.54
2019-04-28T00:10:53.864Z,9.67
2019-04-28T00:10:58.866Z,11.73
2019-04-28T00:11:03.865Z,12.95
2019-04-28T00:11:08.866Z,17.35
2019-04-28T00:11:13.868Z,15.31
2019-04-28T00:11:18.868Z,10.98
2019-04-28T00:11:23.871Z,9.16
2019-04-28T00:11:28.871Z,13.51
2019-04-28T00:11:33.873Z,10.97
2019-04-28T00:11:38.872Z,9.73
2019-04-28T00:11:43.891Z,10.91
2019-04-28T00:11:48.877Z,9.54
2019-04-28T00:11:53.875Z,9.67
2019-04-28T00:11:58.878Z,7.29
2019-04-28T00:12:03.878Z,9.71
2019-04-28T00:12:08.881Z,11.10
2019-04-28T00:12:13.879Z,12.20
2019-04-28T00:12:18.881Z,10.54
2019-04-28T00:12:23.882Z,10.71
2019-04-28T00:12:28.881Z,11.07
2019-04-28T00:12:33.883Z,9.59
2019-04-28T00:12:38.884Z,7.98
2019-04-28T00:12:43.884Z,8.18
2019-04-28T00:12:48.886Z,12.36
2019-04-28T00:12:53.885Z,13.64
2019-04-28T00:12:58.889Z,12.45
2019-04-28T00:13:03.938Z,15.06
2019-04-28T00:13:08.888Z,12.86
2019-04-28T00:13:13.892Z,15.73
2019-04-28T00:13:18.891Z,15.87
2019-04-28T00:13:23.891Z,14.31
2019-04-28T00:13:28.892Z,12.61
2019-04-28T00:13:33.894Z,12.39
2019-04-28T00:13:38.900Z,13.74
2019-04-28T00:13:43.896Z,12.89
2019-04-28T00:13:48.897Z,10.30
2019-04-28T00:13:53.899Z,9.97
2019-04-28T00:13:58.899Z,9.23
2019-04-28T00:14:04.105Z,7.41
2019-04-28T00:14:08.986Z,9.69
2019-04-28T00:14:13.903Z,12.19
2019-04-28T00:14:18.904Z,13.31
2019-04-28T00:14:23.906Z,12.64
2019-04-28T00:14:28.904Z,11.35
2019-04-28T00:14:33.906Z,8.85
2019-04-28T00:14:38.906Z,9.87
2019-04-28T00:14:43.910Z,12.91
2019-04-28T00:14:48.910Z,11.79
2019-04-28T00:14:53.912Z,14.58
2019-04-28T00:14:58.912Z,12.33
2019-04-28T00:15:03.913Z,15.13
2019-04-28T00:15:08.927Z,12.94
2019-04-28T00:15:13.913Z,11.80
2019-04-28T00:15:18.916Z,12.42
2019-04-28T00:15:23.917Z,13.38
2019-04-28T00:15:28.917Z,13.40
2019-04-28T00:15:33.918Z,14.79
2019-04-28T00:15:38.920Z,16.69
2019-04-28T00:15:43.922Z,12.30
2019-04-28T00:15:48.922Z,13.94
2019-04-28T00:15:53.924Z,15.95
2019-04-28T00:15:58.922Z,14.91
2019-04-28T00:16:03.924Z,12.15
2019-04-28T00:16:08.925Z,9.91
2019-04-28T00:16:13.925Z,9.84
2019-04-28T00:16:18.927Z,11.89
2019-04-28T00:16:23.927Z,12.03
2019-04-28T00:16:28.928Z,9.91
2019-04-28T00:16:33.931Z,7.72
2019-04-28T00:16:38.930Z,6.54
2019-04-28T00:16:43.932Z,10.04
2019-04-28T00:16:48.933Z,14.38
2019-04-28T00:16:53.933Z,15.52
2019-04-28T00:16:58.933Z,14.40
2019-04-28T00:17:03.937Z,14.40
2019-04-28T00:17:08.936Z,10.98
2019-04-28T00:17:13.942Z,9.10
2019-04-28T00:17:18.937Z,9.15
2019-04-28T00:17:23.987Z,6.54
2019-04-28T00:17:28.943Z,8.71
2019-04-28T00:17:33.942Z,13.94
2019-04-28T00:17:38.948Z,16.01
2019-04-28T00:17:43.943Z,18.29
2019-04-28T00:17:48.942Z,17.80
2019-04-28T00:17:53.944Z,16.18
2019-04-28T00:17:58.944Z,12.86
2019-04-28T00:18:03.948Z,12.30
2019-04-28T00:18:08.946Z,11.29
2019-04-28T00:18:13.949Z,12.34
2019-04-28T00:18:18.950Z,13.36
2019-04-28T00:18:23.949Z,12.21
2019-04-28T00:18:28.950Z,11.26
2019-04-28T00:18:33.951Z,10.53
2019-04-28T00:18:38.953Z,8.29
2019-04-28T00:18:43.955Z,8.85
2019-04-28T00:18:48.955Z,11.57
2019-04-28T00:18:53.956Z,11.05
2019-04-28T00:18:58.956Z,9.13
2019-04-28T00:19:03.957Z,7.46
2019-04-28T00:19:08.959Z,7.29
2019-04-28T00:19:13.960Z,5.93
2019-04-28T00:19:18.960Z,8.54
2019-04-28T00:19:23.961Z,9.34
2019-04-28T00:19:28.964Z,9.92
2019-04-28T00:19:33.964Z,12.93
2019-04-28T00:19:38.965Z,13.55
2019-04-28T00:19:43.968Z,10.41
2019-04-28T00:19:48.969Z,8.25
2019-04-28T00:19:53.969Z,7.54
2019-04-28T00:19:58.971Z,8.03
2019-04-28T00:20:03.970Z,9.60
2019-04-28T00:20:08.970Z,11.13
2019-04-28T00:20:13.972Z,12.46
2019-04-28T00:20:18.973Z,14.13
2019-04-28T00:20:24.323Z,12.19
2019-04-28T00:20:28.973Z,9.96
2019-04-28T00:20:33.977Z,8.10
2019-04-28T00:20:38.977Z,8.22
2019-04-28T00:20:44.395Z,7.83
2019-04-28T00:20:48.981Z,9.16
2019-04-28T00:20:53.982Z,10.98
2019-04-28T00:20:58.981Z,14.58
2019-04-28T00:21:03.982Z,13.83
2019-04-28T00:21:08.984Z,16.97
2019-04-28T00:21:13.985Z,18.53
2019-04-28T00:21:18.987Z,18.17
2019-04-28T00:21:23.985Z,13.97
2019-04-28T00:21:28.986Z,16.30
2019-04-28T00:21:33.988Z,18.74
2019-04-28T00:21:38.989Z,15.08
2019-04-28T00:21:43.990Z,16.75
2019-04-28T00:21:48.990Z,15.46
2019-04-28T00:21:53.992Z,14.75
2019-04-28T00:21:58.993Z,14.88
2019-04-28T00:22:03.994Z,14.10
2019-04-28T00:22:08.993Z,12.64
2019-04-28T00:22:13.996Z,13.53
2019-04-28T00:22:18.996Z,15.41
2019-04-28T00:22:23.997Z,16.89
2019-04-28T00:22:29.000Z,14.76
2019-04-28T00:22:34.000Z,13.22
2019-04-28T00:22:39.003Z,9.17
2019-04-28T00:22:44.001Z,10.27
2019-04-28T00:22:49.002Z,12.75
2019-04-28T00:22:54.010Z,11.53
2019-04-28T00:22:59.005Z,14.92
2019-04-28T00:23:04.008Z,12.81
2019-04-28T00:23:09.009Z,9.33
2019-04-28T00:23:14.013Z,7.90
2019-04-28T00:23:19.008Z,5.01
2019-04-28T00:23:24.010Z,4.06
2019-04-28T00:23:29.012Z,9.65
2019-04-28T00:23:34.009Z,12.49
2019-04-28T00:23:39.011Z,10.61
2019-04-28T00:23:44.012Z,13.81
2019-04-28T00:23:49.013Z,14.21
2019-04-28T00:23:54.012Z,11.20
2019-04-28T00:23:59.013Z,9.17
2019-04-28T00:24:04.016Z,6.55
2019-04-28T00:24:09.016Z,4.57
2019-04-28T00:24:14.021Z,5.58
2019-04-28T00:24:19.021Z,8.33
2019-04-28T00:24:24.019Z,11.95
2019-04-28T00:24:29.021Z,11.18
2019-04-28T00:24:34.021Z,14.75
2019-04-28T00:24:39.023Z,13.22
2019-04-28T00:24:44.023Z,10.00
2019-04-28T00:24:49.026Z,10.59
2019-04-28T00:24:54.025Z,13.15
2019-04-28T00:24:59.060Z,13.99
2019-04-28T00:25:04.062Z,12.14
2019-04-28T00:25:09.062Z,9.48
2019-04-28T00:25:14.544Z,10.42
2019-04-28T00:25:19.063Z,13.76
2019-04-28T00:25:24.066Z,13.82
2019-04-28T00:25:29.066Z,12.75
2019-04-28T00:25:34.066Z,12.84
2019-04-28T00:25:39.068Z,12.95
2019-04-28T00:25:44.070Z,11.50
2019-04-28T00:25:49.069Z,8.90
2019-04-28T00:25:54.070Z,10.46
2019-04-28T00:25:59.070Z,9.39
2019-04-28T00:26:04.071Z,9.68
2019-04-28T00:26:09.074Z,7.29
2019-04-28T00:26:14.073Z,6.11
2019-04-28T00:26:19.075Z,6.84
2019-04-28T00:26:24.077Z,7.14
2019-04-28T00:26:29.077Z,9.31
2019-04-28T00:26:34.078Z,8.18
2019-04-28T00:26:39.080Z,7.52
2019-04-28T00:26:44.081Z,9.78
2019-04-28T00:26:49.082Z,11.89
2019-04-28T00:26:54.081Z,13.58
2019-04-28T00:26:59.083Z,12.37
2019-04-28T00:27:04.085Z,13.44
2019-04-28T00:27:09.085Z,13.37
2019-04-28T00:27:14.085Z,12.94
2019-04-28T00:27:19.088Z,12.62
2019-04-28T00:27:24.087Z,10.73
2019-04-28T00:27:29.090Z,10.78
2019-04-28T00:27:34.090Z,10.79
2019-04-28T00:27:39.094Z,10.80
2019-04-28T00:27:44.093Z,10.80
2019-04-28T00:27:49.092Z,12.93
2019-04-28T00:27:54.093Z,11.79
2019-04-28T00:27:59.095Z,10.76
2019-04-28T00:28:04.096Z,10.79
2019-04-28T00:28:09.097Z,8.67
2019-04-28T00:28:14.097Z,7.68
2019-04-28T00:28:19.100Z,6.18
2019-04-28T00:28:24.099Z,4.44
2019-04-28T00:28:29.102Z,6.35
2019-04-28T00:28:34.107Z,8.05
2019-04-28T00:28:39.102Z,7.48
2019-04-28T00:28:44.102Z,4.87
2019-04-28T00:28:49.105Z,4.74
2019-04-28T00:28:54.106Z,6.39
2019-04-28T00:28:59.105Z,11.48
2019-04-28T00:29:04.105Z,10.30
2019-04-28T00:29:09.111Z,10.64
2019-04-28T00:29:14.110Z,8.62
2019-04-28T00:29:19.111Z,7.67
2019-04-28T00:29:24.112Z,8.18
2019-04-28T00:29:29.113Z,6.80
2019-04-28T00:29:34.114Z,4.65
2019-04-28T00:29:39.114Z,9.59
2019-04-28T00:29:44.114Z,13.95
2019-04-28T00:29:49.114Z,14.25
2019-04-28T00:29:54.117Z,11.36
2019-04-28T00:29:59.117Z,8.56
2019-04-28T00:30:04.167Z,9.77
2019-04-28T00:30:09.119Z,9.28
2019-04-28T00:30:14.121Z,12.43
2019-04-28T00:30:19.121Z,13.75
2019-04-28T00:30:24.124Z,13.01
2019-04-28T00:30:29.125Z,11.52
2019-04-28T00:30:34.125Z,11.04
2019-04-28T00:30:39.125Z,10.88
2019-04-28T00:30:44.129Z,8.87
2019-04-28T00:30:49.128Z,9.50
2019-04-28T00:30:54.127Z,11.09
2019-04-28T00:30:59.130Z,9.60
2019-04-28T00:31:04.415Z,8.65
2019-04-28T00:31:09.131Z,9.43
2019-04-28T00:31:14.133Z,13.60
2019-04-28T00:31:19.133Z,13.84
2019-04-28T00:31:24.136Z,14.22
2019-04-28T00:31:29.135Z,14.80
2019-04-28T00:31:34.135Z,12.11
2019-04-28T00:31:39.138Z,11.23
2019-04-28T00:31:44.137Z,12.07
2019-04-28T00:31:49.139Z,9.09
2019-04-28T00:31:54.140Z,12.36
2019-04-28T00:31:59.144Z,11.98
2019-04-28T00:32:04.144Z,10.17
2019-04-28T00:32:09.143Z,10.23
2019-04-28T00:32:14.143Z,9.89
2019-04-28T00:32:19.145Z,11.08
2019-04-28T00:32:24.147Z,12.19
2019-04-28T00:32:29.147Z,10.25
2019-04-28T00:32:34.149Z,6.90
2019-04-28T00:32:39.149Z,7.16
2019-04-28T00:32:44.150Z,12.03
2019-04-28T00:32:49.151Z,9.91
2019-04-28T00:32:54.153Z,10.51
2019-04-28T00:32:59.152Z,12.00
2019-04-28T00:33:04.156Z,11.91
2019-04-28T00:33:09.155Z,16.01
2019-04-28T00:33:14.158Z,15.22
2019-04-28T00:33:19.156Z,13.26
2019-04-28T00:33:24.159Z,12.73
2019-04-28T00:33:29.159Z,10.68
2019-04-28T00:33:34.159Z,13.18
2019-04-28T00:33:39.161Z,12.70
2019-04-28T00:33:44.162Z,9.72
2019-04-28T00:33:49.161Z,12.87
2019-04-28T00:33:54.163Z,13.90
2019-04-28T00:33:59.165Z,12.11
2019-04-28T00:34:04.166Z,9.93
2019-04-28T00:34:09.167Z,10.22
2019-04-28T00:34:14.166Z,12.31
2019-04-28T00:34:19.168Z,10.00
2019-04-28T00:34:24.168Z,8.12
2019-04-28T00:34:29.170Z,7.96
2019-04-28T00:34:34.170Z,7.45
2019-04-28T00:34:39.171Z,11.00
2019-04-28T00:34:44.171Z,11.99
2019-04-28T00:34:49.213Z,9.89
2019-04-28T00:34:54.179Z,8.08
2019-04-28T00:34:59.175Z,9.97
2019-04-28T00:35:04.176Z,11.19
2019-04-28T00:35:09.178Z,9.17
2019-04-28T00:35:14.179Z,8.57
2019-04-28T00:35:19.181Z,9.31
2019-04-28T00:35:24.184Z,9.02
2019-04-28T00:35:29.181Z,7.33
2019-04-28T00:35:34.184Z,9.26
2019-04-28T00:35:39.186Z,12.00
2019-04-28T00:35:44.185Z,15.63
2019-04-28T00:35:49.186Z,15.10
2019-04-28T00:35:54.187Z,13.04
2019-04-28T00:35:59.187Z,9.41
2019-04-28T00:36:04.189Z,9.22
2019-04-28T00:36:09.189Z,10.28
2019-04-28T00:36:14.190Z,8.87
2019-04-28T00:36:19.191Z,7.75
2019-04-28T00:36:24.192Z,4.96
2019-04-28T00:36:29.192Z,4.77
2019-04-28T00:36:34.194Z,5.68
2019-04-28T00:36:39.193Z,4.28
2019-04-28T00:36:44.196Z,4.54
2019-04-28T00:36:49.197Z,8.09
2019-04-28T00:36:54.197Z,11.04
2019-04-28T00:36:59.198Z,11.34
2019-04-28T00:37:04.199Z,8.85
2019-04-28T00:37:09.201Z,10.59
2019-04-28T00:37:14.201Z,12.43
2019-04-28T00:37:19.205Z,13.03
2019-04-28T00:37:24.203Z,9.41
2019-04-28T00:37:29.204Z,7.55
2019-04-28T00:37:34.207Z,6.74
2019-04-28T00:37:39.208Z,4.63
2019-04-28T00:37:44.208Z,9.12
2019-04-28T00:37:49.209Z,12.67
2019-04-28T00:37:54.210Z,16.57
2019-04-28T00:37:59.209Z,19.53
2019-04-28T00:38:04.213Z,18.50
2019-04-28T00:38:09.216Z,16.04
2019-04-28T00:38:14.213Z,14.64
2019-04-28T00:38:19.216Z,10.76
2019-04-28T00:38:24.218Z,10.49
2019-04-28T00:38:29.219Z,10.70
2019-04-28T00:38:34.217Z,8.35
2019-04-28T00:38:39.217Z,7.58
2019-04-28T00:38:44.402Z,7.90
2019-04-28T00:38:49.240Z,7.43
2019-04-28T00:38:54.223Z,6.98
2019-04-28T00:38:59.221Z,7.13
2019-04-28T00:39:04.223Z,7.18
2019-04-28T00:39:09.223Z,7.19
2019-04-28T00:39:14.224Z,8.95
2019-04-28T00:39:19.228Z,9.73
2019-04-28T00:39:24.228Z,9.87
2019-04-28T00:39:29.229Z,12.92
2019-04-28T00:39:34.459Z,13.91
2019-04-28T00:39:39.232Z,14.18
2019-04-28T00:39:44.250Z,11.91
2019-04-28T00:39:49.231Z,8.74
2019-04-28T00:39:54.234Z,9.83
2019-04-28T00:39:59.234Z,9.19
2019-04-28T00:40:04.236Z,7.85
2019-04-28T00:40:09.234Z,9.17
2019-04-28T00:40:14.482Z,8.97
2019-04-28T00:40:19.236Z,9.19
2019-04-28T00:40:24.237Z,7.85
2019-04-28T00:40:29.239Z,7.41
2019-04-28T00:40:34.244Z,7.27
2019-04-28T00:40:39.241Z,7.22
2019-04-28T00:40:44.242Z,5.08
2019-04-28T00:40:49.244Z,11.79
2019-04-28T00:40:54.244Z,11.79
2019-04-28T00:40:59.247Z,9.46
2019-04-28T00:41:04.246Z,8.66
2019-04-28T00:41:09.248Z,12.58
2019-04-28T00:41:14.249Z,14.47
2019-04-28T00:41:19.250Z,12.30
2019-04-28T00:41:24.253Z,8.87
2019-04-28T00:41:29.250Z,8.47
2019-04-28T00:41:34.252Z,10.04
2019-04-28T00:41:39.252Z,12.88
2019-04-28T00:41:44.254Z,13.18
2019-04-28T00:41:49.254Z,13.71
2019-04-28T00:41:54.257Z,11.75
2019-04-28T00:41:59.257Z,10.71
2019-04-28T00:42:04.259Z,11.47
2019-04-28T00:42:09.260Z,7.30
2019-04-28T00:42:14.260Z,6.57
2019-04-28T00:42:19.260Z,6.99
2019-04-28T00:42:24.265Z,17.69
2019-04-28T00:42:29.262Z,18.91
2019-04-28T00:42:34.302Z,17.76
2019-04-28T00:42:39.265Z,17.92
2019-04-28T00:42:44.266Z,17.31
2019-04-28T00:42:49.267Z,15.35
2019-04-28T00:42:54.270Z,15.01
2019-04-28T00:42:59.267Z,11.18
2019-04-28T00:43:04.268Z,7.93
2019-04-28T00:43:09.273Z,10.23
2019-04-28T00:43:14.271Z,12.74
2019-04-28T00:43:19.272Z,13.86
2019-04-28T00:43:24.275Z,14.89
2019-04-28T00:43:29.273Z,14.85
2019-04-28T00:43:34.275Z,15.27
2019-04-28T00:43:39.278Z,13.39
2019-04-28T00:43:44.279Z,13.37
2019-04-28T00:43:49.280Z,17.61
2019-04-28T00:43:54.280Z,16.75
2019-04-28T00:43:59.279Z,15.46
2019-04-28T00:44:04.282Z,16.87
2019-04-28T00:44:09.282Z,18.67
2019-04-28T00:44:14.282Z,15.06
2019-04-28T00:44:19.283Z,12.91
2019-04-28T00:44:24.284Z,14.02
2019-04-28T00:44:29.286Z,9.73
2019-04-28T00:44:34.288Z,9.87
2019-04-28T00:44:39.289Z,9.57
2019-04-28T00:44:44.290Z,7.98
2019-04-28T00:44:49.289Z,5.40
2019-04-28T00:44:54.290Z,8.07
2019-04-28T00:44:59.292Z,9.91
2019-04-28T00:45:04.821Z,10.08
2019-04-28T00:45:09.294Z,11.86
2019-04-28T00:45:14.294Z,12.90
2019-04-28T00:45:19.297Z,13.85
2019-04-28T00:45:24.295Z,11.34
2019-04-28T00:45:29.299Z,10.61
2019-04-28T00:45:34.298Z,10.74
2019-04-28T00:45:39.300Z,9.08
2019-04-28T00:45:44.300Z,11.24
2019-04-28T00:45:49.302Z,14.19
2019-04-28T00:45:54.302Z,14.33
2019-04-28T00:45:59.306Z,15.10
2019-04-28T00:46:04.304Z,13.33
2019-04-28T00:46:09.305Z,13.47
2019-04-28T00:46:14.306Z,11.68
2019-04-28T00:46:19.306Z,9.68
2019-04-28T00:46:24.308Z,9.14
2019-04-28T00:46:29.310Z,9.50
2019-04-28T00:46:34.311Z,8.99
2019-04-28T00:46:39.310Z,7.79
2019-04-28T00:46:44.312Z,9.52
2019-04-28T00:46:49.313Z,7.96
2019-04-28T00:46:54.316Z,7.45
2019-04-28T00:46:59.314Z,7.28
2019-04-28T00:47:04.370Z,4.81
2019-04-28T00:47:09.370Z,4.00
2019-04-28T00:47:14.370Z,7.61
2019-04-28T00:47:19.372Z,12.18
2019-04-28T00:47:24.371Z,13.30
2019-04-28T00:47:29.373Z,13.00
2019-04-28T00:47:34.373Z,14.00
2019-04-28T00:47:39.375Z,14.21
2019-04-28T00:47:44.377Z,14.80
2019-04-28T00:47:49.377Z,13.81
2019-04-28T00:47:54.377Z,11.36
2019-04-28T00:47:59.380Z,12.45
2019-04-28T00:48:04.379Z,12.00
2019-04-28T00:48:09.381Z,12.28
2019-04-28T00:48:14.382Z,12.99
2019-04-28T00:48:19.383Z,11.06
2019-04-28T00:48:24.382Z,10.88
2019-04-28T00:48:29.385Z,11.92
2019-04-28T00:48:34.385Z,12.87
2019-04-28T00:48:39.388Z,12.31
2019-04-28T00:48:44.460Z,13.05
2019-04-28T00:48:49.388Z,12.92
2019-04-28T00:48:54.389Z,13.20
2019-04-28T00:48:59.390Z,11.58
2019-04-28T00:49:04.393Z,10.76
2019-04-28T00:49:09.392Z,11.51
2019-04-28T00:49:14.393Z,11.33
2019-04-28T00:49:19.393Z,13.10
2019-04-28T00:49:24.399Z,14.69
2019-04-28T00:49:29.523Z,17.29
2019-04-28T00:49:34.396Z,14.92
2019-04-28T00:49:39.399Z,12.15
2019-04-28T00:49:44.400Z,11.24
2019-04-28T00:49:49.401Z,11.41
2019-04-28T00:49:54.400Z,9.59
2019-04-28T00:49:59.401Z,10.40
2019-04-28T00:50:04.402Z,10.97
2019-04-28T00:50:09.404Z,9.56
2019-04-28T00:50:14.403Z,7.97
2019-04-28T00:50:19.407Z,6.73
2019-04-28T00:50:24.407Z,4.63
2019-04-28T00:50:29.406Z,5.69
2019-04-28T00:50:34.407Z,7.95
2019-04-28T00:50:39.411Z,12.46
2019-04-28T00:50:44.501Z,18.29
2019-04-28T00:50:49.411Z,19.22
2019-04-28T00:50:54.413Z,14.52
2019-04-28T00:50:59.418Z,10.98
2019-04-28T00:51:04.413Z,10.86
2019-04-28T00:51:09.415Z,9.12
2019-04-28T00:51:14.416Z,11.95
2019-04-28T00:51:19.416Z,9.77
2019-04-28T00:51:24.417Z,10.83
2019-04-28T00:51:29.421Z,10.44
2019-04-28T00:51:34.421Z,11.44
2019-04-28T00:51:39.420Z,12.02
2019-04-28T00:51:44.424Z,11.50
2019-04-28T00:51:49.424Z,10.66
2019-04-28T00:51:54.425Z,10.03
2019-04-28T00:51:59.427Z,10.25
2019-04-28T00:52:04.425Z,8.86
2019-04-28T00:52:09.427Z,10.17
2019-04-28T00:52:14.428Z,10.59
2019-04-28T00:52:19.430Z,12.03
2019-04-28T00:52:24.431Z,9.91
2019-04-28T00:52:29.430Z,8.09
2019-04-28T00:52:34.432Z,10.37
2019-04-28T00:52:39.432Z,9.18
2019-04-28T00:52:44.439Z,7.13
2019-04-28T00:52:49.434Z,4.76
2019-04-28T00:52:54.436Z,3.98
2019-04-28T00:52:59.435Z,8.48
2019-04-28T00:53:04.438Z,7.62
2019-04-28T00:53:09.439Z,9.35
2019-04-28T00:53:14.445Z,11.08
2019-04-28T00:53:19.440Z,8.77
2019-04-28T00:53:24.444Z,5.96
2019-04-28T00:53:29.442Z,4.37
2019-04-28T00:53:34.563Z,3.85
2019-04-28T00:53:39.448Z,3.22
2019-04-28T00:53:44.446Z,1.42
2019-04-28T00:53:49.448Z,0.47
2019-04-28T00:53:54.448Z,2.63
2019-04-28T00:53:59.450Z,9.12
2019-04-28T00:54:04.451Z,12.01
2019-04-28T00:54:09.451Z,13.56
2019-04-28T00:54:14.450Z,12.83
2019-04-28T00:54:19.451Z,13.06
2019-04-28T00:54:24.452Z,13.33
2019-04-28T00:54:29.455Z,12.75
2019-04-28T00:54:34.738Z,12.16
2019-04-28T00:54:39.456Z,11.71
2019-04-28T00:54:44.457Z,11.76
2019-04-28T00:54:49.457Z,14.00
2019-04-28T00:54:54.458Z,12.57
2019-04-28T00:54:59.464Z,13.80
2019-04-28T00:55:04.460Z,12.91
2019-04-28T00:55:09.461Z,11.49
2019-04-28T00:55:14.465Z,10.57
2019-04-28T00:55:19.465Z,12.85
2019-04-28T00:55:24.466Z,13.23
2019-04-28T00:55:29.467Z,12.26
2019-04-28T00:55:34.467Z,11.28
2019-04-28T00:55:39.467Z,10.96
2019-04-28T00:55:44.468Z,12.98
2019-04-28T00:55:49.471Z,12.64
2019-04-28T00:55:54.471Z,9.28
2019-04-28T00:55:59.470Z,5.46
2019-04-28T00:56:04.471Z,4.21
2019-04-28T00:56:09.473Z,4.74
2019-04-28T00:56:14.472Z,5.27
2019-04-28T00:56:19.473Z,6.57
2019-04-28T00:56:24.479Z,6.99
2019-04-28T00:56:29.476Z,5.47
2019-04-28T00:56:34.476Z,7.21
2019-04-28T00:56:39.479Z,7.20
2019-04-28T00:56:44.480Z,5.08
2019-04-28T00:56:49.480Z,4.08
2019-04-28T00:56:54.482Z,4.33
2019-04-28T00:56:59.484Z,6.26
2019-04-28T00:57:04.484Z,10.72
2019-04-28T00:57:09.489Z,9.65
2019-04-28T00:57:14.489Z,11.55
2019-04-28T00:57:19.487Z,9.38
2019-04-28T00:57:24.489Z,7.19
2019-04-28T00:57:29.489Z,4.78
2019-04-28T00:57:34.490Z,7.87
2019-04-28T00:57:39.492Z,9.84
2019-04-28T00:57:44.493Z,10.49
2019-04-28T00:57:49.493Z,8.74
2019-04-28T00:57:54.495Z,7.70
2019-04-28T00:57:59.498Z,5.61
2019-04-28T00:58:04.496Z,5.96
2019-04-28T00:58:09.494Z,6.79
2019-04-28T00:58:14.498Z,9.19
2019-04-28T00:58:19.498Z,10.27
2019-04-28T00:58:24.498Z,11.00
2019-04-28T00:58:29.500Z,11.90
2019-04-28T00:58:34.506Z,11.16
2019-04-28T00:58:39.505Z,12.68
2019-04-28T00:58:44.502Z,9.66
2019-04-28T00:58:49.504Z,5.88
2019-04-28T00:58:54.504Z,4.35
2019-04-28T00:58:59.508Z,5.14
2019-04-28T00:59:04.507Z,5.95
2019-04-28T00:59:09.508Z,4.37
2019-04-28T00:59:14.509Z,3.85
2019-04-28T00:59:19.517Z,4.98
2019-04-28T00:59:24.511Z,8.60
2019-04-28T00:59:29.511Z,8.95
2019-04-28T00:59:34.514Z,10.20
2019-04-28T00:59:39.516Z,8.18
2019-04-28T00:59:44.522Z,5.47
2019-04-28T00:59:49.516Z,4.93
2019-04-28T00:59:54.518Z,6.46
2019-04-28T00:59:59.518Z,4.54
2019-04-28T01:00:04.518Z,8.08
2019-04-28T01:00:09.519Z,12.04
2019-04-28T01:00:14.522Z,11.87
2019-04-28T01:00:19.521Z,9.85
2019-04-28T01:00:24.521Z,8.79
2019-04-28T01:00:29.522Z,9.42
2019-04-28T01:00:34.529Z,7.93
2019-04-28T01:00:39.526Z,8.16
2019-04-28T01:00:44.525Z,11.34
2019-04-28T01:00:49.529Z,11.35
2019-04-28T01:00:54.532Z,7.84
2019-04-28T01:00:59.530Z,6.28
2019-04-28T01:01:04.532Z,5.60
2019-04-28T01:01:09.534Z,4.26
2019-04-28T01:01:14.532Z,3.82
2019-04-28T01:01:19.536Z,3.67
2019-04-28T01:01:24.559Z,6.04
2019-04-28T01:01:29.535Z,8.95
2019-04-28T01:01:34.535Z,8.90
2019-04-28T01:01:39.535Z,7.76
2019-04-28T01:01:44.540Z,6.66
2019-04-28T01:01:49.540Z,4.60
2019-04-28T01:01:54.538Z,3.21
2019-04-28T01:01:59.540Z,6.52
2019-04-28T01:02:04.542Z,9.40
2019-04-28T01:02:09.548Z,9.04
2019-04-28T01:02:14.541Z,8.10
2019-04-28T01:02:19.545Z,7.49
2019-04-28T01:02:24.554Z,11.44
2019-04-28T01:02:29.555Z,14.09
2019-04-28T01:02:34.556Z,14.30
2019-04-28T01:02:39.558Z,10.65
2019-04-28T01:02:44.824Z,8.33
2019-04-28T01:02:49.564Z,5.52
2019-04-28T01:02:54.561Z,4.23
2019-04-28T01:02:59.564Z,4.53
2019-04-28T01:03:04.563Z,5.45
2019-04-28T01:03:09.566Z,8.38
2019-04-28T01:03:14.564Z,10.47
2019-04-28T01:03:19.567Z,8.57
2019-04-28T01:03:24.566Z,10.07
2019-04-28T01:03:29.566Z,9.73
2019-04-28T01:03:34.569Z,9.04
2019-04-28T01:03:39.571Z,10.22
2019-04-28T01:03:44.572Z,10.61
2019-04-28T01:03:49.571Z,8.61
2019-04-28T01:03:54.572Z,6.33
2019-04-28T01:03:59.572Z,4.49
2019-04-28T01:04:04.576Z,5.19
2019-04-28T01:04:09.575Z,5.79
2019-04-28T01:04:14.578Z,6.74
2019-04-28T01:04:19.578Z,7.05
2019-04-28T01:04:24.578Z,7.87
2019-04-28T01:04:30.365Z,7.71
2019-04-28T01:04:34.579Z,6.04
2019-04-28T01:04:39.582Z,5.23
2019-04-28T01:04:44.581Z,5.43
2019-04-28T01:04:49.586Z,6.62
2019-04-28T01:04:54.585Z,5.83
2019-04-28T01:04:59.585Z,4.33
2019-04-28T01:05:04.586Z,4.56
2019-04-28T01:05:09.588Z,8.09
2019-04-28T01:05:14.586Z,7.79
2019-04-28T01:05:19.591Z,4.97